Warren, IN

4:52 AM EST on February 11, 2016 (GMT -0500)
South Huntington County | | Change Station
CLOSE
Current Station
Personal Weather Station
Location: Van Buren, IN
Elevation: 853 ft
Nearby Weather Stations

Elev 853 ft 40.66 °N, 85.51 °W | Updated 41 seconds ago

Clear
Clear
10.0 °F
Feels Like 3 °F
N
3.6
Wind Variable Wind from SW
Gusts 4.9 mph

Today
High -- | Low -- °F
--% Chance of Precip.
Yesterday
High -- | Low -- °F
Precip. -- in
Pressure 30.15 in
Visibility 10.0 miles
Clouds Clear
Windchill 3 °F
Dew Point -3 °F
Humidity 54%
Rainfall 0.00 in
Snow Depth Not available.
7:41 AM 6:11 PM
Waxing Crescent, 11% visible
METAR KMZZ 110935Z AUTO 26005KT 10SM CLR M16/M21 A3015 RMK AO2 T11611208
Pressure 30.15 in
Visibility 10.0 miles
Clouds Clear
Windchill 3 °F
Dew Point -3 °F
Humidity 54%
Rainfall 0.00 in
Snow Depth Not available.
7:41 AM 6:11 PM
Waxing Crescent, 11% visible
METAR KMZZ 110935Z AUTO 26005KT 10SM CLR M16/M21 A3015 RMK AO2 T11611208

10-Day Weather Forecast

Almanac

Astronomy

Feb. 11, 2016 Rise Set
Actual Time
Civil Twilight
Nautical Twilight
Astronomical Twilight
Moon
Length of Visible Light
Length of Day
Tomorrow will be .
, % of the Moon is Illuminated

Today's Extremes

State Highs State Lows

Community

WunderPhotos

Upload Photos

1,892,030 photos uploaded!

WunderBlog® & News

Nearby

Air Quality

  Air Quality AQ Index Pollutant
Not available.

Snow Depth

Station Depth Elevation

Earthquake Activity

City Distance Mag. Time & Date
Minimum magnitude displayed is 2.5.

Coastal Water Temperatures

Place Temperature

Stations

Nearby Weather Stations

Station Location Temp. Windchill Dew Point Humidity Wind Precip. Elev Updated Type
                   

Watches & Warnings

There are currently no watches in effect.